createdAt,value
2022-09-15T00:00:47.089Z,100064.00
2022-09-15T00:11:11.659Z,100062.00
2022-09-15T00:21:38.270Z,100046.00
2022-09-15T00:32:00.228Z,100044.00
2022-09-15T00:42:24.079Z,100033.00
2022-09-15T00:52:50.284Z,100050.00
2022-09-15T01:03:13.961Z,100049.00
2022-09-15T01:13:35.341Z,100046.00
2022-09-15T01:24:34.945Z,100049.00
2022-09-15T01:35:06.201Z,100060.00
2022-09-15T01:45:31.478Z,100055.00
2022-09-15T01:56:00.936Z,100056.00
2022-09-15T02:06:29.701Z,100044.00
2022-09-15T02:16:55.212Z,100046.00
2022-09-15T02:27:21.857Z,100060.00
2022-09-15T02:37:45.570Z,100045.00
2022-09-15T02:48:09.405Z,100043.00
2022-09-15T02:58:33.547Z,100060.00
2022-09-15T03:08:58.298Z,100057.00
2022-09-15T03:19:21.092Z,100050.00
2022-09-15T03:29:42.587Z,100051.00
2022-09-15T03:40:06.973Z,100051.00
2022-09-15T03:50:28.602Z,100052.00
2022-09-15T04:00:51.482Z,100040.00
2022-09-15T04:11:15.563Z,100045.00
2022-09-15T04:21:38.824Z,100055.00
2022-09-15T04:32:01.002Z,100059.00
2022-09-15T04:42:24.081Z,100052.00
2022-09-15T04:52:45.691Z,100046.00
2022-09-15T05:03:08.376Z,100042.00
2022-09-15T05:13:30.103Z,100044.00
2022-09-15T05:23:53.957Z,100043.00
2022-09-15T05:34:15.903Z,100049.00
2022-09-15T05:44:40.873Z,100053.00
2022-09-15T05:55:03.742Z,100040.00
2022-09-15T06:05:26.602Z,100043.00
2022-09-15T06:15:48.107Z,100059.00
2022-09-15T06:26:12.588Z,100061.00
2022-09-15T06:36:34.670Z,100051.00
2022-09-15T06:46:58.044Z,100049.00
2022-09-15T06:57:19.512Z,100062.00
2022-09-15T07:07:42.529Z,100056.00
2022-09-15T07:18:03.952Z,100066.00
2022-09-15T07:28:26.920Z,100067.00
2022-09-15T07:38:51.829Z,100075.00
2022-09-15T07:49:15.200Z,100085.00
2022-09-15T07:59:41.019Z,100108.00
2022-09-15T08:10:04.301Z,100112.00
2022-09-15T08:20:26.298Z,100105.00
2022-09-15T08:30:49.294Z,100115.00
2022-09-15T08:41:16.246Z,100121.00
2022-09-15T08:51:45.242Z,100117.00
2022-09-15T09:02:39.420Z,100135.00
2022-09-15T09:13:14.464Z,100131.00
2022-09-15T09:23:40.036Z,100126.00
2022-09-15T09:34:11.691Z,100116.00
2022-09-15T09:44:33.922Z,100123.00
2022-09-15T09:55:03.015Z,100123.00
2022-09-15T10:05:24.870Z,100119.00
2022-09-15T10:15:53.340Z,100132.00
2022-09-15T10:26:23.445Z,100124.00
2022-09-15T10:36:47.555Z,100123.00
2022-09-15T10:47:22.845Z,100119.00
2022-09-15T10:58:02.098Z,100100.00
2022-09-15T11:08:39.004Z,100109.00
2022-09-15T11:19:12.566Z,100105.00
2022-09-15T11:29:40.814Z,100100.00
2022-09-15T11:40:14.247Z,100095.00
2022-09-15T11:50:40.493Z,100099.00
2022-09-15T12:01:09.953Z,100114.00
2022-09-15T12:11:36.575Z,100120.00
2022-09-15T12:22:06.527Z,100133.00
2022-09-15T12:32:31.119Z,100123.00
2022-09-15T12:42:55.783Z,100127.00
2022-09-15T12:53:22.840Z,100127.00
2022-09-15T13:04:29.068Z,100096.00
2022-09-15T13:14:54.884Z,100096.00
2022-09-15T13:25:24.740Z,100104.00
2022-09-15T13:36:00.834Z,100085.00
2022-09-15T13:46:37.241Z,100106.00
2022-09-15T13:57:02.949Z,100083.00
2022-09-15T14:07:26.217Z,100079.00
2022-09-15T14:17:49.345Z,100077.00
2022-09-15T14:28:20.504Z,100084.00
2022-09-15T14:38:43.288Z,100069.00
2022-09-15T14:49:11.208Z,100074.00
2022-09-15T14:59:38.628Z,100074.00
2022-09-15T15:10:03.653Z,100080.00
2022-09-15T15:31:15.101Z,100095.00
2022-09-15T15:41:41.832Z,100096.00
2022-09-15T15:52:03.777Z,100102.00
2022-09-15T16:02:28.662Z,100112.00
2022-09-15T16:12:50.546Z,100137.00
2022-09-15T16:23:18.642Z,100136.00
2022-09-15T16:33:45.276Z,100138.00
2022-09-15T16:44:18.702Z,100135.00
2022-09-15T16:54:40.585Z,100136.00
2022-09-15T17:05:03.604Z,100140.00
2022-09-15T17:15:28.818Z,100136.00
2022-09-15T17:26:09.736Z,100142.00
2022-09-15T17:36:36.163Z,100157.00
2022-09-15T17:46:59.779Z,100153.00
2022-09-15T17:57:21.840Z,100156.00
2022-09-15T18:07:51.645Z,100167.00
2022-09-15T18:18:15.989Z,100158.00
2022-09-15T18:28:38.990Z,100171.00
2022-09-15T18:39:00.933Z,100172.00
2022-09-15T18:49:26.532Z,100193.00
2022-09-15T18:59:48.197Z,100193.00
2022-09-15T19:10:12.572Z,100187.00
2022-09-15T19:20:34.222Z,100185.00
2022-09-15T19:30:56.974Z,100199.00
2022-09-15T19:41:18.844Z,100196.00
2022-09-15T19:51:42.006Z,100196.00
2022-09-15T20:02:03.629Z,100187.00
2022-09-15T20:12:27.045Z,100193.00
2022-09-15T20:22:48.650Z,100192.00
2022-09-15T20:33:11.363Z,100209.00
2022-09-15T20:43:33.253Z,100217.00
2022-09-15T20:53:57.439Z,100204.00
2022-09-15T21:04:19.027Z,100210.00
2022-09-15T21:14:42.005Z,100221.00
2022-09-15T21:25:04.924Z,100212.00
2022-09-15T21:35:27.972Z,100223.00
2022-09-15T21:45:49.590Z,100226.00
2022-09-15T21:56:13.781Z,100234.00
2022-09-15T22:06:36.838Z,100253.00
2022-09-15T22:16:59.454Z,100256.00
2022-09-15T22:27:20.832Z,100259.00
2022-09-15T22:37:43.990Z,100262.00
2022-09-15T22:48:06.252Z,100259.00
2022-09-15T22:58:29.370Z,100252.00
2022-09-15T23:08:52.721Z,100264.00
2022-09-15T23:19:15.659Z,100256.00
2022-09-15T23:29:36.858Z,100260.00
2022-09-15T23:39:59.926Z,100258.00
2022-09-15T23:50:21.730Z,100262.00
